createdAt,value
2019-02-14T00:01:22.721Z,72.60
2019-02-14T00:03:48.940Z,71.50
2019-02-14T00:06:15.286Z,71.30
2019-02-14T00:08:42.753Z,71.60
2019-02-14T00:11:09.039Z,72.00
2019-02-14T00:13:35.309Z,72.40
2019-02-14T00:16:01.794Z,72.60
2019-02-14T00:18:28.046Z,73.20
2019-02-14T00:20:54.427Z,73.80
2019-02-14T00:23:20.710Z,74.10
2019-02-14T00:25:46.982Z,74.00
2019-02-14T00:28:13.361Z,73.60
2019-02-14T00:30:39.714Z,73.50
2019-02-14T00:33:06.000Z,73.20
2019-02-14T00:35:32.522Z,72.80
2019-02-14T00:37:58.795Z,72.60
2019-02-14T00:40:25.055Z,72.90
2019-02-14T00:42:51.757Z,73.60
2019-02-14T00:45:18.009Z,74.20
2019-02-14T00:47:44.239Z,74.40
2019-02-14T00:50:10.540Z,74.00
2019-02-14T00:52:36.757Z,73.70
2019-02-14T00:55:04.460Z,73.80
2019-02-14T00:57:30.686Z,73.50
2019-02-14T00:59:57.302Z,73.60
2019-02-14T01:02:23.696Z,74.30
2019-02-14T01:04:49.916Z,75.10
2019-02-14T01:07:16.187Z,75.50
2019-02-14T01:09:42.367Z,75.60
2019-02-14T01:12:09.631Z,74.90
2019-02-14T01:14:35.959Z,74.30
2019-02-14T01:17:02.329Z,75.30
2019-02-14T01:19:28.562Z,75.60
2019-02-14T01:21:54.808Z,76.20
2019-02-14T01:24:21.036Z,75.90
2019-02-14T01:26:47.369Z,75.20
2019-02-14T01:29:15.610Z,75.00
2019-02-14T01:31:41.835Z,75.30
2019-02-14T01:34:08.111Z,75.60
2019-02-14T01:36:34.328Z,75.30
2019-02-14T01:39:00.586Z,75.60
2019-02-14T01:41:26.739Z,75.60
2019-02-14T01:43:53.405Z,75.80
2019-02-14T01:46:19.622Z,76.50
2019-02-14T01:48:45.934Z,77.10
2019-02-14T01:51:12.113Z,78.00
2019-02-14T01:53:38.383Z,78.30
2019-02-14T01:56:04.764Z,78.40
2019-02-14T01:58:31.031Z,78.10
2019-02-14T02:00:57.422Z,78.00
2019-02-14T02:03:24.068Z,77.80
2019-02-14T02:05:51.038Z,76.80
2019-02-14T02:08:17.504Z,77.40
2019-02-14T02:10:43.751Z,77.50
2019-02-14T02:13:10.043Z,77.50
2019-02-14T02:15:36.372Z,77.70
2019-02-14T02:18:02.992Z,78.60
2019-02-14T02:20:33.362Z,79.60
2019-02-14T02:22:57.344Z,79.90
2019-02-14T02:25:23.568Z,80.40
2019-02-14T02:27:49.818Z,80.10
2019-02-14T02:30:16.068Z,80.60
2019-02-14T02:32:42.489Z,80.70
2019-02-14T02:35:08.911Z,81.10
2019-02-14T02:37:35.158Z,81.20
2019-02-14T02:40:01.461Z,81.00
2019-02-14T02:42:27.857Z,81.10
2019-02-14T02:44:54.153Z,80.70
2019-02-14T02:47:20.383Z,79.60
2019-02-14T02:49:46.558Z,79.30
2019-02-14T02:52:12.815Z,79.70
2019-02-14T02:54:39.041Z,80.50
2019-02-14T02:57:05.585Z,78.80
2019-02-14T02:59:31.839Z,78.50
2019-02-14T03:02:05.423Z,79.00
2019-02-14T03:04:31.652Z,79.90
2019-02-14T03:06:57.905Z,80.90
2019-02-14T03:09:24.148Z,81.40
2019-02-14T03:11:50.312Z,80.90
2019-02-14T03:14:16.732Z,80.00
2019-02-14T03:16:43.048Z,79.00
2019-02-14T03:19:09.301Z,78.60
2019-02-14T03:21:35.733Z,77.70
2019-02-14T03:24:02.169Z,77.70
2019-02-14T03:26:28.415Z,78.80
2019-02-14T03:28:54.876Z,79.70
2019-02-14T03:31:21.232Z,80.00
2019-02-14T03:33:47.428Z,80.70
2019-02-14T03:36:18.780Z,81.10
2019-02-14T03:38:41.827Z,80.80
2019-02-14T03:41:08.207Z,81.40
2019-02-14T03:43:34.386Z,81.10
2019-02-14T03:46:00.672Z,80.60
2019-02-14T03:48:27.294Z,79.50
2019-02-14T03:50:53.729Z,79.60
2019-02-14T03:53:19.948Z,79.70
2019-02-14T03:55:46.099Z,81.00
2019-02-14T03:58:12.405Z,82.10
2019-02-14T04:00:38.637Z,82.90
2019-02-14T04:03:04.865Z,83.20
2019-02-14T04:05:31.101Z,83.20
2019-02-14T04:07:57.560Z,81.40
2019-02-14T04:10:23.787Z,81.40
2019-02-14T04:12:50.079Z,81.10
2019-02-14T04:15:17.096Z,81.40
2019-02-14T04:17:43.265Z,81.80
2019-02-14T04:20:10.078Z,81.60
2019-02-14T04:22:36.372Z,81.40
2019-02-14T04:25:04.340Z,81.00
2019-02-14T04:27:30.586Z,80.80
2019-02-14T04:29:56.740Z,81.10
2019-02-14T04:32:23.014Z,81.80
2019-02-14T04:34:49.283Z,82.20
2019-02-14T04:37:15.652Z,82.20
2019-02-14T04:39:42.025Z,82.30
2019-02-14T04:42:08.249Z,82.10
2019-02-14T04:44:34.416Z,81.20
2019-02-14T04:47:00.869Z,82.00
2019-02-14T04:49:27.297Z,83.30
2019-02-14T04:51:53.612Z,82.00
2019-02-14T04:54:19.907Z,81.30
2019-02-14T04:56:46.125Z,81.10
2019-02-14T04:59:12.390Z,80.60
2019-02-14T05:01:38.686Z,81.00
2019-02-14T05:04:05.051Z,80.90
2019-02-14T05:06:31.249Z,81.10
2019-02-14T05:08:57.481Z,81.60
2019-02-14T05:11:23.955Z,83.30
2019-02-14T05:13:50.536Z,83.50
2019-02-14T05:16:16.912Z,82.80
2019-02-14T05:18:43.271Z,82.50
2019-02-14T05:21:09.519Z,82.80
2019-02-14T05:23:35.983Z,82.80
2019-02-14T05:26:02.275Z,82.90
2019-02-14T05:28:28.625Z,82.40
2019-02-14T05:30:55.101Z,82.40
2019-02-14T05:33:21.332Z,82.30
2019-02-14T05:35:47.667Z,82.00
2019-02-14T05:38:13.915Z,82.00
2019-02-14T05:40:40.167Z,81.20
2019-02-14T05:43:06.499Z,80.70
2019-02-14T05:45:33.105Z,81.80
2019-02-14T05:47:59.350Z,81.80
2019-02-14T05:50:25.605Z,81.50
2019-02-14T05:52:52.072Z,82.10
2019-02-14T05:55:18.278Z,81.90
2019-02-14T05:57:44.555Z,81.00
2019-02-14T06:00:16.194Z,79.80
2019-02-14T06:02:42.680Z,79.20
2019-02-14T06:05:09.017Z,79.40
2019-02-14T06:07:35.402Z,80.50
2019-02-14T06:10:01.819Z,81.10
2019-02-14T06:12:28.204Z,81.10
2019-02-14T06:14:54.532Z,80.80
2019-02-14T06:17:21.352Z,80.70
2019-02-14T06:19:47.557Z,81.20
2019-02-14T06:22:13.785Z,81.50
2019-02-14T06:24:40.332Z,81.60
2019-02-14T06:27:06.956Z,81.30
2019-02-14T06:29:33.209Z,80.40
2019-02-14T06:31:59.645Z,80.10
2019-02-14T06:34:26.824Z,80.30
2019-02-14T06:36:53.159Z,80.60
2019-02-14T06:39:19.458Z,80.80
2019-02-14T06:41:45.797Z,81.60
2019-02-14T06:44:12.445Z,82.00
2019-02-14T06:46:38.793Z,81.80
2019-02-14T06:49:05.109Z,81.60
2019-02-14T06:51:31.277Z,81.60
2019-02-14T06:53:57.593Z,81.10
2019-02-14T06:56:23.956Z,81.10
2019-02-14T06:58:50.172Z,81.40
2019-02-14T07:01:16.412Z,81.40
2019-02-14T07:03:42.816Z,81.80
2019-02-14T07:06:09.068Z,82.00
2019-02-14T07:08:35.428Z,82.20
2019-02-14T07:11:01.764Z,82.20
2019-02-14T07:13:27.992Z,82.10
2019-02-14T07:15:54.466Z,83.00
2019-02-14T07:18:20.697Z,84.40
2019-02-14T07:20:46.962Z,85.00
2019-02-14T07:23:13.090Z,85.20
2019-02-14T07:25:39.468Z,85.20
2019-02-14T07:28:05.694Z,86.30
2019-02-14T07:30:31.964Z,85.60
2019-02-14T07:32:58.305Z,85.00
2019-02-14T07:35:24.610Z,85.10
2019-02-14T07:37:50.802Z,85.80
2019-02-14T07:40:17.343Z,86.10
2019-02-14T07:42:43.832Z,86.30
2019-02-14T07:45:13.207Z,86.60
2019-02-14T07:47:39.731Z,86.60
2019-02-14T07:50:08.416Z,86.80
2019-02-14T07:52:35.001Z,86.50
2019-02-14T07:55:01.415Z,87.80
2019-02-14T07:57:27.674Z,88.40
2019-02-14T07:59:53.973Z,89.10
2019-02-14T08:02:20.267Z,89.50
2019-02-14T08:04:46.646Z,89.60
2019-02-14T08:07:12.869Z,89.80
2019-02-14T08:09:39.328Z,90.00
2019-02-14T08:12:05.648Z,90.40
2019-02-14T08:14:31.943Z,90.50
2019-02-14T08:16:58.326Z,90.60
2019-02-14T08:19:24.586Z,90.80
2019-02-14T08:21:51.040Z,91.10
2019-02-14T08:24:17.394Z,91.20
2019-02-14T08:26:43.559Z,90.90
2019-02-14T08:29:09.799Z,91.50
2019-02-14T08:31:36.158Z,91.70
2019-02-14T08:34:02.629Z,91.50
2019-02-14T08:36:28.995Z,91.60
2019-02-14T08:38:55.363Z,91.90
2019-02-14T08:41:21.619Z,92.50
2019-02-14T08:43:47.890Z,92.10
2019-02-14T08:46:14.160Z,92.10
2019-02-14T08:48:40.392Z,92.00
2019-02-14T08:51:06.618Z,91.40
2019-02-14T08:53:32.885Z,91.40
2019-02-14T08:55:59.162Z,91.40
2019-02-14T08:58:25.597Z,92.00
2019-02-14T09:00:53.095Z,92.50
2019-02-14T09:03:19.462Z,92.40
2019-02-14T09:05:45.857Z,91.70
2019-02-14T09:08:12.344Z,92.00
2019-02-14T09:10:38.696Z,92.90
2019-02-14T09:13:04.898Z,93.10
2019-02-14T09:15:31.223Z,93.20
2019-02-14T09:17:57.457Z,93.50
2019-02-14T09:20:23.906Z,92.80
2019-02-14T09:22:50.088Z,92.70
2019-02-14T09:25:16.543Z,92.70
2019-02-14T09:27:42.910Z,91.80
2019-02-14T09:30:11.800Z,91.40
2019-02-14T09:32:38.360Z,89.40
2019-02-14T09:35:07.891Z,88.90
2019-02-14T09:37:34.353Z,87.50
2019-02-14T09:40:00.485Z,83.80
2019-02-14T09:42:26.840Z,79.90
2019-02-14T09:44:53.174Z,77.10
2019-02-14T09:47:19.405Z,73.10
2019-02-14T09:49:45.693Z,73.80
2019-02-14T09:52:12.018Z,72.30
2019-02-14T09:54:38.464Z,71.90
2019-02-14T09:57:04.710Z,72.40
2019-02-14T09:59:31.051Z,73.00
2019-02-14T10:01:57.491Z,72.20
2019-02-14T10:04:23.734Z,69.40
2019-02-14T10:06:49.997Z,67.80
2019-02-14T10:09:16.250Z,65.90
2019-02-14T10:11:42.754Z,65.80
2019-02-14T10:14:09.034Z,63.40
2019-02-14T10:16:35.305Z,64.40
2019-02-14T10:19:01.523Z,59.00
2019-02-14T10:21:27.687Z,58.90
2019-02-14T10:23:53.915Z,57.50
2019-02-14T10:26:20.415Z,57.40
2019-02-14T10:28:46.881Z,54.40
2019-02-14T10:31:13.647Z,54.20
2019-02-14T10:33:40.006Z,52.90
2019-02-14T10:36:06.240Z,54.20
2019-02-14T10:38:32.483Z,53.80
2019-02-14T10:40:58.697Z,51.90
2019-02-14T10:43:24.840Z,52.50
2019-02-14T10:45:51.186Z,53.60
2019-02-14T10:48:17.400Z,54.10
2019-02-14T10:50:43.723Z,54.10
2019-02-14T10:53:12.158Z,53.00
2019-02-14T10:55:38.346Z,51.90
2019-02-14T10:58:04.676Z,47.80
2019-02-14T11:00:31.042Z,48.80
2019-02-14T11:02:57.369Z,47.50
2019-02-14T11:05:23.727Z,45.70
2019-02-14T11:07:50.305Z,46.60
2019-02-14T11:10:16.611Z,46.40
2019-02-14T11:12:42.943Z,46.40
2019-02-14T11:15:15.101Z,47.10
2019-02-14T11:17:41.441Z,47.50
2019-02-14T11:20:09.996Z,47.10
2019-02-14T11:22:36.403Z,46.00
2019-02-14T11:25:05.464Z,45.20
2019-02-14T11:27:31.651Z,45.90
2019-02-14T11:29:57.999Z,44.60
2019-02-14T11:32:24.164Z,44.50
2019-02-14T11:34:50.612Z,44.00
2019-02-14T11:37:16.911Z,43.70
2019-02-14T11:39:43.160Z,42.40
2019-02-14T11:42:09.451Z,41.40
2019-02-14T11:44:39.713Z,40.60
2019-02-14T11:47:03.735Z,39.30
2019-02-14T11:49:30.010Z,39.40
2019-02-14T11:51:56.395Z,36.90
2019-02-14T11:54:22.630Z,34.00
2019-02-14T11:56:48.795Z,35.30
2019-02-14T11:59:15.093Z,36.00
2019-02-14T12:01:41.371Z,37.00
2019-02-14T12:04:07.634Z,36.70
2019-02-14T12:06:33.875Z,37.50
2019-02-14T12:09:00.713Z,38.30
2019-02-14T12:11:27.133Z,39.10
2019-02-14T12:13:53.381Z,39.40
2019-02-14T12:16:19.745Z,39.50
2019-02-14T12:18:46.143Z,40.50
2019-02-14T12:21:12.432Z,39.30
2019-02-14T12:23:38.776Z,38.70
2019-02-14T12:26:05.811Z,36.90
2019-02-14T12:28:32.305Z,37.70
2019-02-14T12:30:58.555Z,39.80
2019-02-14T12:33:25.030Z,39.70
2019-02-14T12:35:51.281Z,39.60
2019-02-14T12:38:17.684Z,40.10
2019-02-14T12:40:43.941Z,41.10
2019-02-14T12:43:10.191Z,41.80
2019-02-14T12:45:36.441Z,42.40
2019-02-14T12:48:02.690Z,42.90
2019-02-14T12:50:28.963Z,43.20
2019-02-14T12:52:55.313Z,41.40
2019-02-14T12:55:21.656Z,39.80
2019-02-14T12:57:48.131Z,38.80
2019-02-14T13:00:16.882Z,37.90
2019-02-14T13:02:43.179Z,33.80
2019-02-14T13:05:09.392Z,34.90
2019-02-14T13:07:35.637Z,35.80
2019-02-14T13:10:03.811Z,34.50
2019-02-14T13:12:30.384Z,33.50
2019-02-14T13:14:56.602Z,34.90
2019-02-14T13:17:22.859Z,34.50
2019-02-14T13:19:49.099Z,35.30
2019-02-14T13:22:15.432Z,35.40
2019-02-14T13:24:41.576Z,34.80
2019-02-14T13:27:07.902Z,33.80
2019-02-14T13:29:34.372Z,33.40
2019-02-14T13:32:00.677Z,32.30
2019-02-14T13:34:26.882Z,31.30
2019-02-14T13:37:01.362Z,30.70
2019-02-14T13:39:29.292Z,29.20
2019-02-14T13:41:49.454Z,28.40
2019-02-14T13:44:15.590Z,27.10
2019-02-14T13:46:42.042Z,28.00
2019-02-14T13:49:08.290Z,28.70
2019-02-14T13:51:34.660Z,30.00
2019-02-14T13:54:00.907Z,30.60
2019-02-14T13:56:27.045Z,28.30
2019-02-14T13:58:53.330Z,28.10
2019-02-14T14:01:19.734Z,26.40
2019-02-14T14:03:45.955Z,23.50
2019-02-14T14:06:12.195Z,24.30
2019-02-14T14:08:38.556Z,24.70
2019-02-14T14:11:04.917Z,22.30
2019-02-14T14:13:31.251Z,22.40
2019-02-14T14:15:57.627Z,20.30
2019-02-14T14:18:23.851Z,20.20
2019-02-14T14:20:50.139Z,21.20
2019-02-14T14:23:16.428Z,22.20
2019-02-14T14:25:42.683Z,23.40
2019-02-14T14:28:09.138Z,23.80
2019-02-14T14:30:35.387Z,24.20
2019-02-14T14:33:01.656Z,25.10
2019-02-14T14:35:28.015Z,25.80
2019-02-14T14:37:54.277Z,25.10
2019-02-14T14:40:20.664Z,25.30
2019-02-14T14:42:51.528Z,26.50
2019-02-14T14:45:26.640Z,25.90
2019-02-14T14:47:52.933Z,26.20
2019-02-14T14:50:19.255Z,26.10
2019-02-14T14:52:45.692Z,26.60
2019-02-14T14:55:12.171Z,26.40
2019-02-14T14:57:38.454Z,26.90
2019-02-14T15:00:07.454Z,27.20
2019-02-14T15:02:33.908Z,27.50
2019-02-14T15:05:00.418Z,28.20
2019-02-14T15:07:26.647Z,28.60
2019-02-14T15:09:57.637Z,29.20
2019-02-14T15:12:21.078Z,29.80
2019-02-14T15:14:47.315Z,30.00
2019-02-14T15:17:13.854Z,29.90
2019-02-14T15:19:40.177Z,29.70
2019-02-14T15:22:06.428Z,29.60
2019-02-14T15:24:32.751Z,29.80
2019-02-14T15:26:59.284Z,30.30
2019-02-14T15:29:25.406Z,30.80
2019-02-14T15:31:51.728Z,31.20
2019-02-14T15:34:18.125Z,31.40
2019-02-14T15:36:44.483Z,31.00
2019-02-14T15:39:10.736Z,30.50
2019-02-14T15:41:36.873Z,30.50
2019-02-14T15:44:03.131Z,30.90
2019-02-14T15:46:29.460Z,31.00
2019-02-14T15:48:56.088Z,30.50
2019-02-14T15:51:22.320Z,30.80
2019-02-14T15:53:48.575Z,31.10
2019-02-14T15:56:14.966Z,31.10
2019-02-14T15:58:41.323Z,31.40
2019-02-14T16:01:07.694Z,31.80
2019-02-14T16:03:33.922Z,32.20
2019-02-14T16:06:01.749Z,33.50
2019-02-14T16:08:28.420Z,33.10
2019-02-14T16:10:55.918Z,34.10
2019-02-14T16:13:22.266Z,34.70
2019-02-14T16:15:50.665Z,34.40
2019-02-14T16:18:16.843Z,34.40
2019-02-14T16:20:44.269Z,34.60
2019-02-14T16:23:10.672Z,34.70
2019-02-14T16:25:36.914Z,34.80
2019-02-14T16:28:03.272Z,34.90
2019-02-14T16:30:31.032Z,35.80
2019-02-14T16:32:57.882Z,36.50
2019-02-14T16:35:24.271Z,37.10
2019-02-14T16:37:50.727Z,37.60
2019-02-14T16:40:17.095Z,38.60
2019-02-14T16:42:43.552Z,38.70
2019-02-14T16:45:09.959Z,39.00
2019-02-14T16:47:36.166Z,39.50
2019-02-14T16:50:04.330Z,39.70
2019-02-14T16:52:31.218Z,40.00
2019-02-14T16:54:57.463Z,40.50
2019-02-14T16:57:23.877Z,40.60
2019-02-14T16:59:50.203Z,41.00
2019-02-14T17:02:16.561Z,41.30
2019-02-14T17:04:42.908Z,41.30
2019-02-14T17:07:09.243Z,41.60
2019-02-14T17:09:35.504Z,41.80
2019-02-14T17:12:01.838Z,41.80
2019-02-14T17:14:28.084Z,41.90
2019-02-14T17:16:54.352Z,42.50
2019-02-14T17:19:21.306Z,42.70
2019-02-14T17:21:47.567Z,43.10
2019-02-14T17:24:14.043Z,43.40
2019-02-14T17:26:40.500Z,43.40
2019-02-14T17:29:06.969Z,43.60
2019-02-14T17:31:33.249Z,43.70
2019-02-14T17:33:59.684Z,43.60
2019-02-14T17:36:25.963Z,43.50
2019-02-14T17:38:52.231Z,43.70
2019-02-14T17:41:18.438Z,43.80
2019-02-14T17:43:44.799Z,43.80
2019-02-14T17:46:11.337Z,44.20
2019-02-14T17:48:37.796Z,44.00
2019-02-14T17:51:04.197Z,43.90
2019-02-14T17:53:30.795Z,44.00
2019-02-14T17:55:57.160Z,44.20
2019-02-14T17:58:23.474Z,44.00
2019-02-14T18:00:49.746Z,44.00
2019-02-14T18:03:16.040Z,44.10
2019-02-14T18:05:42.404Z,44.40
2019-02-14T18:08:08.664Z,44.40
2019-02-14T18:10:34.930Z,44.40
2019-02-14T18:13:01.214Z,44.70
2019-02-14T18:15:27.493Z,45.20
2019-02-14T18:17:53.747Z,45.40
2019-02-14T18:20:19.962Z,45.70
2019-02-14T18:22:46.357Z,46.10
2019-02-14T18:25:12.841Z,46.40
2019-02-14T18:27:39.220Z,47.00
2019-02-14T18:30:09.908Z,47.30
2019-02-14T18:32:36.364Z,47.30
2019-02-14T18:35:05.156Z,47.20
2019-02-14T18:37:31.652Z,47.20
2019-02-14T18:39:58.253Z,47.40
2019-02-14T18:42:24.495Z,47.70
2019-02-14T18:44:50.779Z,48.20
2019-02-14T18:47:17.017Z,48.80
2019-02-14T18:49:47.378Z,48.10
2019-02-14T18:52:13.710Z,48.30
2019-02-14T18:54:39.952Z,48.40
2019-02-14T18:57:06.313Z,48.60
2019-02-14T18:59:32.555Z,48.40
2019-02-14T19:01:58.903Z,48.50
2019-02-14T19:04:25.344Z,48.30
2019-02-14T19:06:51.737Z,48.40
2019-02-14T19:09:18.301Z,48.70
2019-02-14T19:11:44.548Z,48.70
2019-02-14T19:14:10.866Z,48.80
2019-02-14T19:16:37.083Z,49.20
2019-02-14T19:19:04.216Z,49.30
2019-02-14T19:21:30.579Z,49.80
2019-02-14T19:23:57.294Z,50.30
2019-02-14T19:26:23.551Z,51.10
2019-02-14T19:28:50.085Z,50.60
2019-02-14T19:31:16.619Z,50.50
2019-02-14T19:33:42.996Z,51.00
2019-02-14T19:36:09.283Z,51.20
2019-02-14T19:38:35.555Z,51.30
2019-02-14T19:41:01.893Z,51.20
2019-02-14T19:43:28.277Z,51.00
2019-02-14T19:45:54.602Z,50.80
2019-02-14T19:48:21.057Z,51.10
2019-02-14T19:50:47.309Z,51.40
2019-02-14T19:53:13.597Z,52.00
2019-02-14T19:55:39.802Z,53.20
2019-02-14T19:58:06.058Z,53.40
2019-02-14T20:00:32.533Z,53.50
2019-02-14T20:02:59.031Z,53.90
2019-02-14T20:05:25.282Z,53.90
2019-02-14T20:07:51.661Z,53.30
2019-02-14T20:10:18.023Z,53.20
2019-02-14T20:12:46.810Z,53.10
2019-02-14T20:15:15.450Z,52.90
2019-02-14T20:17:41.830Z,53.20
2019-02-14T20:20:08.785Z,54.40
2019-02-14T20:22:35.246Z,55.40
2019-02-14T20:25:01.646Z,54.40
2019-02-14T20:27:27.898Z,54.10
2019-02-14T20:29:54.086Z,54.00
2019-02-14T20:32:20.423Z,54.80
2019-02-14T20:34:46.922Z,55.40
2019-02-14T20:37:13.256Z,55.50
2019-02-14T20:39:39.620Z,54.90
2019-02-14T20:42:06.058Z,55.00
2019-02-14T20:44:32.308Z,54.90
2019-02-14T20:46:59.226Z,55.10
2019-02-14T20:49:25.604Z,55.50
2019-02-14T20:51:52.391Z,55.80
2019-02-14T20:54:18.709Z,55.70
2019-02-14T20:56:45.061Z,55.60
2019-02-14T20:59:11.460Z,55.90
2019-02-14T21:01:37.895Z,56.00
2019-02-14T21:04:04.143Z,55.70
2019-02-14T21:06:30.413Z,55.60
2019-02-14T21:08:56.998Z,55.60
2019-02-14T21:11:23.500Z,55.90
2019-02-14T21:13:49.824Z,56.30
2019-02-14T21:16:16.107Z,56.50
2019-02-14T21:18:42.356Z,56.90
2019-02-14T21:21:08.552Z,57.00
2019-02-14T21:23:34.883Z,57.00
2019-02-14T21:26:01.270Z,57.20
2019-02-14T21:28:27.496Z,56.90
2019-02-14T21:30:53.836Z,57.10
2019-02-14T21:33:20.065Z,57.40
2019-02-14T21:35:46.306Z,57.70
2019-02-14T21:38:12.772Z,57.70
2019-02-14T21:40:39.129Z,57.70
2019-02-14T21:43:05.476Z,58.30
2019-02-14T21:45:31.815Z,58.30
2019-02-14T21:47:59.944Z,58.30
2019-02-14T21:50:29.060Z,58.60
2019-02-14T21:52:55.614Z,59.30
2019-02-14T21:55:24.128Z,59.30
2019-02-14T21:57:52.481Z,59.20
2019-02-14T22:00:28.665Z,59.50
2019-02-14T22:02:55.229Z,59.70
2019-02-14T22:05:25.261Z,59.70
2019-02-14T22:07:49.930Z,60.40
2019-02-14T22:10:16.357Z,60.80
2019-02-14T22:12:43.720Z,61.00
2019-02-14T22:15:17.787Z,61.30
2019-02-14T22:17:44.470Z,61.00
2019-02-14T22:20:11.541Z,61.10
2019-02-14T22:22:37.824Z,61.50
2019-02-14T22:25:07.107Z,61.80
2019-02-14T22:27:33.382Z,61.80
2019-02-14T22:29:59.947Z,61.80
2019-02-14T22:32:26.269Z,63.10
2019-02-14T22:34:52.736Z,64.10
2019-02-14T22:37:19.032Z,64.70
2019-02-14T22:39:45.582Z,64.00
2019-02-14T22:42:11.795Z,63.80
2019-02-14T22:44:38.059Z,64.10
2019-02-14T22:47:04.586Z,64.20
2019-02-14T22:49:30.998Z,63.90
2019-02-14T22:51:57.442Z,63.30
2019-02-14T22:54:23.678Z,64.50
2019-02-14T22:56:50.063Z,66.60
2019-02-14T22:59:16.437Z,67.50
2019-02-14T23:01:44.909Z,67.00
2019-02-14T23:04:11.146Z,65.90
2019-02-14T23:06:37.449Z,65.40
2019-02-14T23:09:06.560Z,65.10
2019-02-14T23:11:32.936Z,65.10
2019-02-14T23:13:59.222Z,65.80
2019-02-14T23:16:25.644Z,66.00
2019-02-14T23:18:52.005Z,65.80
2019-02-14T23:21:18.349Z,65.90
2019-02-14T23:23:44.588Z,65.60
2019-02-14T23:26:10.761Z,65.70
2019-02-14T23:28:36.918Z,65.60
2019-02-14T23:31:03.505Z,65.90
2019-02-14T23:33:38.738Z,66.00
2019-02-14T23:36:05.204Z,65.80
2019-02-14T23:38:31.623Z,66.10
2019-02-14T23:40:57.838Z,66.10
2019-02-14T23:43:24.186Z,66.30
2019-02-14T23:45:52.356Z,66.60
2019-02-14T23:48:18.879Z,67.30
2019-02-14T23:50:47.530Z,67.70
2019-02-14T23:53:13.980Z,67.60
2019-02-14T23:55:40.392Z,67.80
2019-02-14T23:58:06.713Z,68.30
